createdAt,value
2017-08-05T00:00:23.884Z,92.80
2017-08-05T00:02:52.219Z,93.00
2017-08-05T00:05:20.477Z,92.80
2017-08-05T00:07:48.743Z,93.00
2017-08-05T00:10:17.049Z,93.00
2017-08-05T00:12:45.345Z,93.00
2017-08-05T00:15:13.621Z,93.00
2017-08-05T00:17:41.887Z,93.00
2017-08-05T00:20:10.176Z,93.00
2017-08-05T00:22:38.436Z,93.00
2017-08-05T00:25:06.725Z,93.30
2017-08-05T00:27:34.989Z,93.40
2017-08-05T00:30:03.292Z,93.40
2017-08-05T00:32:31.555Z,93.40
2017-08-05T00:34:59.834Z,93.40
2017-08-05T00:37:28.133Z,93.50
2017-08-05T00:39:56.399Z,93.70
2017-08-05T00:42:24.656Z,93.70
2017-08-05T00:44:52.975Z,93.90
2017-08-05T00:47:21.232Z,94.10
2017-08-05T00:49:49.484Z,94.40
2017-08-05T00:52:17.782Z,94.50
2017-08-05T00:54:46.040Z,94.30
2017-08-05T00:57:14.299Z,94.40
2017-08-05T00:59:42.609Z,94.40
2017-08-05T01:02:10.876Z,94.50
2017-08-05T01:04:39.148Z,94.60
2017-08-05T01:07:07.461Z,95.10
2017-08-05T01:09:35.734Z,95.10
2017-08-05T01:12:04.009Z,95.00
2017-08-05T01:14:32.324Z,94.90
2017-08-05T01:17:00.583Z,95.10
2017-08-05T01:19:28.842Z,94.80
2017-08-05T01:21:57.148Z,95.10
2017-08-05T01:24:25.459Z,95.10
2017-08-05T01:26:53.725Z,94.80
2017-08-05T01:29:22.007Z,95.00
2017-08-05T01:31:50.282Z,95.00
2017-08-05T01:34:18.602Z,95.00
2017-08-05T01:36:46.874Z,95.40
2017-08-05T01:39:15.135Z,94.70
2017-08-05T01:41:43.429Z,94.80
2017-08-05T01:44:11.699Z,94.70
2017-08-05T01:46:39.989Z,95.10
2017-08-05T01:49:08.261Z,95.50
2017-08-05T01:51:36.562Z,94.80
2017-08-05T01:54:04.832Z,95.10
2017-08-05T01:56:33.102Z,94.70
2017-08-05T01:59:02.434Z,94.80
2017-08-05T02:01:30.696Z,95.20
2017-08-05T02:03:58.965Z,95.70
2017-08-05T02:06:27.272Z,95.50
2017-08-05T02:08:55.557Z,95.60
2017-08-05T02:11:23.821Z,95.70
2017-08-05T02:13:52.108Z,95.70
2017-08-05T02:16:20.365Z,95.70
2017-08-05T02:18:48.669Z,95.50
2017-08-05T02:21:16.965Z,95.70
2017-08-05T02:23:45.232Z,95.40
2017-08-05T02:26:13.542Z,95.90
2017-08-05T02:28:41.854Z,95.90
2017-08-05T02:31:10.109Z,96.20
2017-08-05T02:33:38.393Z,96.60
2017-08-05T02:36:06.683Z,96.90
2017-08-05T02:38:34.950Z,97.30
2017-08-05T02:41:03.245Z,97.50
2017-08-05T02:43:31.561Z,97.60
2017-08-05T02:45:59.832Z,97.90
2017-08-05T02:48:27.329Z,97.70
2017-08-05T02:50:55.648Z,98.60
2017-08-05T02:53:23.928Z,99.20
2017-08-05T02:55:52.200Z,99.20
2017-08-05T02:58:20.520Z,99.30
2017-08-05T03:00:48.794Z,99.60
2017-08-05T03:03:17.056Z,99.90
2017-08-05T03:05:45.339Z,99.90
2017-08-05T03:08:13.637Z,99.90
2017-08-05T03:10:41.909Z,99.90
2017-08-05T03:13:10.181Z,99.90
2017-08-05T03:15:38.485Z,99.90
2017-08-05T03:18:06.767Z,99.90
2017-08-05T03:20:35.112Z,99.90
2017-08-05T03:23:03.372Z,99.90
2017-08-05T03:25:31.644Z,99.90
2017-08-05T03:27:59.952Z,99.90
2017-08-05T03:30:28.230Z,99.90
2017-08-05T03:32:56.504Z,99.90
2017-08-05T03:35:24.797Z,99.90
2017-08-05T03:37:53.092Z,99.90
2017-08-05T03:40:21.366Z,99.90
2017-08-05T03:42:49.668Z,99.90
2017-08-05T03:45:17.971Z,99.90
2017-08-05T03:47:46.270Z,99.90
2017-08-05T03:50:14.568Z,99.90
2017-08-05T03:52:42.832Z,99.90
2017-08-05T03:55:11.083Z,99.90
2017-08-05T03:57:39.395Z,99.90
2017-08-05T04:00:07.674Z,99.90
2017-08-05T04:02:35.930Z,99.90
2017-08-05T04:05:03.460Z,99.90
2017-08-05T04:07:31.720Z,99.90
2017-08-05T04:09:59.981Z,99.90
2017-08-05T04:12:28.284Z,99.90
2017-08-05T04:14:56.549Z,99.90
2017-08-05T04:17:24.850Z,99.90
2017-08-05T04:19:53.160Z,99.90
2017-08-05T04:22:21.437Z,99.90
2017-08-05T04:24:49.748Z,99.90
2017-08-05T04:27:18.030Z,99.90
2017-08-05T04:29:46.316Z,99.90
2017-08-05T04:32:14.588Z,99.90
2017-08-05T04:34:42.889Z,99.90
2017-08-05T04:37:11.152Z,99.90
2017-08-05T04:39:39.429Z,99.90
2017-08-05T04:42:07.734Z,99.90
2017-08-05T04:44:36.000Z,99.90
2017-08-05T04:47:04.296Z,99.90
2017-08-05T04:49:32.582Z,99.90
2017-08-05T04:52:00.844Z,99.90
2017-08-05T04:54:29.158Z,99.90
2017-08-05T04:56:57.441Z,99.90
2017-08-05T04:59:25.716Z,99.90
2017-08-05T05:01:55.034Z,99.90
2017-08-05T05:04:23.305Z,99.90
2017-08-05T05:06:51.607Z,99.90
2017-08-05T05:09:19.852Z,99.90
2017-08-05T05:11:48.119Z,99.90
2017-08-05T05:14:16.429Z,99.90
2017-08-05T05:16:43.922Z,99.90
2017-08-05T05:19:12.207Z,99.90
2017-08-05T05:21:41.458Z,99.90
2017-08-05T05:24:09.736Z,99.90
2017-08-05T05:26:37.997Z,99.90
2017-08-05T05:29:06.300Z,99.90
2017-08-05T05:31:35.024Z,99.90
2017-08-05T05:34:03.292Z,99.90
2017-08-05T05:36:31.584Z,99.90
2017-08-05T05:38:59.877Z,99.90
2017-08-05T05:41:28.179Z,99.90
2017-08-05T05:43:56.480Z,99.90
2017-08-05T05:46:24.753Z,99.90
2017-08-05T05:48:53.060Z,99.90
2017-08-05T05:51:21.328Z,99.90
2017-08-05T05:53:49.584Z,99.90
2017-08-05T05:56:17.888Z,99.90
2017-08-05T05:58:46.186Z,99.90
2017-08-05T06:01:14.464Z,99.90
2017-08-05T06:03:42.758Z,99.90
2017-08-05T06:06:11.025Z,99.90
2017-08-05T06:08:39.320Z,99.90
2017-08-05T06:11:07.656Z,99.90
2017-08-05T06:13:35.927Z,99.90
2017-08-05T06:16:04.213Z,99.90
2017-08-05T06:18:32.513Z,99.90
2017-08-05T06:21:00.786Z,99.90
2017-08-05T06:23:29.108Z,99.90
2017-08-05T06:25:57.368Z,99.90
2017-08-05T06:28:25.636Z,99.90
2017-08-05T06:30:53.941Z,99.90
2017-08-05T06:33:22.205Z,99.90
2017-08-05T06:35:50.467Z,99.90
2017-08-05T06:38:18.771Z,99.90
2017-08-05T06:40:47.079Z,99.90
2017-08-05T06:43:15.344Z,99.90
2017-08-05T06:45:43.622Z,99.90
2017-08-05T06:48:11.927Z,99.90
2017-08-05T06:50:40.201Z,99.90
2017-08-05T06:53:09.213Z,99.90
2017-08-05T06:55:37.544Z,99.90
2017-08-05T06:58:05.807Z,99.90
2017-08-05T07:00:34.121Z,99.90
2017-08-05T07:03:02.398Z,99.90
2017-08-05T07:05:30.664Z,99.90
2017-08-05T07:07:58.972Z,99.90
2017-08-05T07:10:27.235Z,99.90
2017-08-05T07:12:55.493Z,99.90
2017-08-05T07:15:23.791Z,99.90
2017-08-05T07:17:51.289Z,99.90
2017-08-05T07:20:36.551Z,99.90
2017-08-05T07:23:05.527Z,99.90
2017-08-05T07:25:33.821Z,99.90
2017-08-05T07:28:02.089Z,99.90
2017-08-05T07:30:30.340Z,99.90
2017-08-05T07:32:58.645Z,99.90
2017-08-05T07:35:26.905Z,99.90
2017-08-05T07:37:55.163Z,99.90
2017-08-05T07:40:23.449Z,99.90
2017-08-05T07:42:51.708Z,99.90
2017-08-05T07:45:20.024Z,99.90
2017-08-05T07:47:48.287Z,99.90
2017-08-05T07:50:16.546Z,99.90
2017-08-05T07:52:44.835Z,99.90
2017-08-05T07:55:13.092Z,99.90
2017-08-05T07:57:41.348Z,99.90
2017-08-05T08:00:09.632Z,99.90
2017-08-05T08:02:37.880Z,99.90
2017-08-05T08:05:06.193Z,99.90
2017-08-05T08:07:34.446Z,99.90
2017-08-05T08:10:02.745Z,99.90
2017-08-05T08:12:31.008Z,99.90
2017-08-05T08:14:59.272Z,99.90
2017-08-05T08:17:27.576Z,99.90
2017-08-05T08:19:55.861Z,99.90
2017-08-05T08:22:24.172Z,99.90
2017-08-05T08:24:52.424Z,99.90
2017-08-05T08:27:20.714Z,99.90
2017-08-05T08:29:49.003Z,99.90
2017-08-05T08:32:17.272Z,99.90
2017-08-05T08:34:45.556Z,99.90
2017-08-05T08:37:13.818Z,99.90
2017-08-05T08:39:42.133Z,99.90
2017-08-05T08:42:10.392Z,99.90
2017-08-05T08:44:38.653Z,99.90
2017-08-05T08:47:06.947Z,99.90
2017-08-05T08:49:35.209Z,99.90
2017-08-05T08:52:03.504Z,99.90
2017-08-05T08:54:31.778Z,99.90
2017-08-05T08:57:00.034Z,99.90
2017-08-05T08:59:29.329Z,99.90
2017-08-05T09:01:57.640Z,99.90
2017-08-05T09:04:25.900Z,99.90
2017-08-05T09:06:54.158Z,99.90
2017-08-05T09:09:22.465Z,99.90
2017-08-05T09:11:50.720Z,99.90
2017-08-05T09:14:18.209Z,99.90
2017-08-05T09:16:46.509Z,99.90
2017-08-05T09:19:14.778Z,99.90
2017-08-05T09:21:43.040Z,99.90
2017-08-05T09:24:11.337Z,99.90
2017-08-05T09:26:39.606Z,99.90
2017-08-05T09:29:07.961Z,99.90
2017-08-05T09:31:36.224Z,99.90
2017-08-05T09:34:04.490Z,99.90
2017-08-05T09:36:32.826Z,99.90
2017-08-05T09:39:01.106Z,99.90
2017-08-05T09:41:29.384Z,99.90
2017-08-05T09:43:57.692Z,99.90
2017-08-05T09:46:25.969Z,99.90
2017-08-05T09:48:54.273Z,99.90
2017-08-05T09:51:22.541Z,99.90
2017-08-05T09:53:50.832Z,99.90
2017-08-05T09:56:19.085Z,99.90
2017-08-05T09:58:47.380Z,99.90
2017-08-05T10:01:15.675Z,99.90
2017-08-05T10:03:43.955Z,99.90
2017-08-05T10:06:12.277Z,99.90
2017-08-05T10:08:40.539Z,99.90
2017-08-05T10:11:08.795Z,99.90
2017-08-05T10:13:37.107Z,99.90
2017-08-05T10:16:05.372Z,99.90
2017-08-05T10:18:33.628Z,99.90
2017-08-05T10:21:01.948Z,99.90
2017-08-05T10:23:30.226Z,99.90
2017-08-05T10:25:58.491Z,99.90
2017-08-05T10:28:26.791Z,99.90
2017-08-05T10:30:55.082Z,99.90
2017-08-05T10:33:23.383Z,99.90
2017-08-05T10:35:50.885Z,99.90
2017-08-05T10:38:19.183Z,99.90
2017-08-05T10:40:47.446Z,99.90
2017-08-05T10:43:15.764Z,99.90
2017-08-05T10:45:44.034Z,99.90
2017-08-05T10:48:12.300Z,99.90
2017-08-05T10:50:40.591Z,99.90
2017-08-05T10:53:08.851Z,99.90
2017-08-05T10:55:36.388Z,99.90
2017-08-05T10:58:04.660Z,99.90
2017-08-05T11:00:32.960Z,99.90
2017-08-05T11:03:01.229Z,99.90
2017-08-05T11:05:29.495Z,99.90
2017-08-05T11:07:57.798Z,99.90
2017-08-05T11:10:26.055Z,99.90
2017-08-05T11:12:54.320Z,99.90
2017-08-05T11:15:22.636Z,99.90
2017-08-05T11:17:50.905Z,99.90
2017-08-05T11:20:19.172Z,99.90
2017-08-05T11:22:47.477Z,99.90
2017-08-05T11:25:15.742Z,99.90
2017-08-05T11:27:44.005Z,99.90
2017-08-05T11:30:12.310Z,99.90
2017-08-05T11:32:40.613Z,99.90
2017-08-05T11:35:08.911Z,99.90
2017-08-05T11:37:37.221Z,99.40
2017-08-05T11:40:05.497Z,98.60
2017-08-05T11:42:33.795Z,98.00
2017-08-05T11:45:02.062Z,99.90
2017-08-05T11:47:30.385Z,98.60
2017-08-05T11:49:58.665Z,96.90
2017-08-05T11:52:26.941Z,96.70
2017-08-05T11:54:55.248Z,97.40
2017-08-05T11:57:23.591Z,96.40
2017-08-05T11:59:51.866Z,96.80
2017-08-05T12:02:20.137Z,96.50
2017-08-05T12:04:48.455Z,96.50
2017-08-05T12:07:16.720Z,98.00
2017-08-05T12:09:44.996Z,96.60
2017-08-05T12:12:13.297Z,96.60
2017-08-05T12:14:41.560Z,96.40
2017-08-05T12:17:09.874Z,96.40
2017-08-05T12:19:37.372Z,96.30
2017-08-05T12:22:05.643Z,98.90
2017-08-05T12:24:33.961Z,96.90
2017-08-05T12:27:02.233Z,97.30
2017-08-05T12:29:30.501Z,96.00
2017-08-05T12:31:58.799Z,95.30
2017-08-05T12:34:27.085Z,95.90
2017-08-05T12:36:55.374Z,95.30
2017-08-05T12:39:23.671Z,94.10
2017-08-05T12:41:52.957Z,94.10
2017-08-05T12:44:21.241Z,95.50
2017-08-05T12:46:49.547Z,94.30
2017-08-05T12:49:17.817Z,95.20
2017-08-05T12:51:46.123Z,94.90
2017-08-05T12:54:14.393Z,94.40
2017-08-05T12:56:42.658Z,95.00
2017-08-05T12:59:10.951Z,93.10
2017-08-05T13:01:39.209Z,93.90
2017-08-05T13:04:07.502Z,94.00
2017-08-05T13:06:35.858Z,94.00
2017-08-05T13:09:04.127Z,93.80
2017-08-05T13:11:32.396Z,96.30
2017-08-05T13:14:00.700Z,93.20
2017-08-05T13:16:28.964Z,93.90
2017-08-05T13:18:57.259Z,93.40
2017-08-05T13:21:25.527Z,91.90
2017-08-05T13:23:53.840Z,92.90
2017-08-05T13:26:22.101Z,93.10
2017-08-05T13:28:50.374Z,92.80
2017-08-05T13:31:18.686Z,92.60
2017-08-05T13:33:46.957Z,93.70
2017-08-05T13:36:15.244Z,93.50
2017-08-05T13:38:43.556Z,92.90
2017-08-05T13:41:11.828Z,92.00
2017-08-05T13:43:40.129Z,92.60
2017-08-05T13:46:08.387Z,92.10
2017-08-05T13:48:36.682Z,93.00
2017-08-05T13:51:05.909Z,93.00
2017-08-05T13:53:34.208Z,93.20
2017-08-05T13:56:02.476Z,93.30
2017-08-05T13:58:30.771Z,93.20
2017-08-05T14:00:59.036Z,93.50
2017-08-05T14:03:27.328Z,93.70
2017-08-05T14:05:55.593Z,95.00
2017-08-05T14:08:23.874Z,95.10
2017-08-05T14:10:52.169Z,95.80
2017-08-05T14:13:20.464Z,97.40
2017-08-05T14:15:48.746Z,98.60
2017-08-05T14:18:17.050Z,99.80
2017-08-05T14:20:45.314Z,99.90
2017-08-05T14:23:13.573Z,99.90
2017-08-05T14:25:41.866Z,99.90
2017-08-05T14:28:10.150Z,99.90
2017-08-05T14:30:38.454Z,99.90
2017-08-05T14:33:06.718Z,99.90
2017-08-05T14:35:34.996Z,99.90
2017-08-05T14:38:03.291Z,99.90
2017-08-05T14:40:31.570Z,99.90
2017-08-05T14:42:59.835Z,99.90
2017-08-05T14:45:27.382Z,99.90
2017-08-05T14:47:55.729Z,99.90
2017-08-05T14:50:24.020Z,99.90
2017-08-05T14:52:52.282Z,99.90
2017-08-05T14:55:20.585Z,99.90
2017-08-05T14:57:48.850Z,99.90
2017-08-05T15:00:17.178Z,99.90
2017-08-05T15:02:45.452Z,99.90
2017-08-05T15:05:13.724Z,99.90
2017-08-05T15:07:42.030Z,99.90
2017-08-05T15:10:10.298Z,99.90
2017-08-05T15:12:38.570Z,99.90
2017-08-05T15:15:06.874Z,99.90
2017-08-05T15:17:35.150Z,99.90
2017-08-05T15:20:03.470Z,99.90
2017-08-05T15:22:31.741Z,99.90
2017-08-05T15:25:00.051Z,99.90
2017-08-05T15:27:28.335Z,99.90
2017-08-05T15:29:56.632Z,99.90
2017-08-05T15:32:24.907Z,99.90
2017-08-05T15:34:53.256Z,99.90
2017-08-05T15:37:21.539Z,99.90
2017-08-05T15:39:49.816Z,99.90
2017-08-05T15:42:18.148Z,99.90
2017-08-05T15:44:46.429Z,99.90
2017-08-05T15:47:13.940Z,99.90
2017-08-05T15:49:42.251Z,99.90
2017-08-05T15:52:10.545Z,99.90
2017-08-05T15:54:38.834Z,99.90
2017-08-05T15:57:07.136Z,99.90
2017-08-05T15:59:35.421Z,99.90
2017-08-05T16:02:03.754Z,99.90
2017-08-05T16:04:32.068Z,98.00
2017-08-05T16:07:00.360Z,98.30
2017-08-05T16:09:28.702Z,98.20
2017-08-05T16:11:57.051Z,99.90
2017-08-05T16:14:25.341Z,99.10
2017-08-05T16:16:53.716Z,99.60
2017-08-05T16:19:21.998Z,97.90
2017-08-05T16:21:50.342Z,97.60
2017-08-05T16:24:18.669Z,98.50
2017-08-05T16:26:46.944Z,99.50
2017-08-05T16:29:15.209Z,98.20
2017-08-05T16:31:43.509Z,97.90
2017-08-05T16:34:11.871Z,97.90
2017-08-05T16:36:40.149Z,98.00
2017-08-05T16:39:08.419Z,96.90
2017-08-05T16:41:36.736Z,96.90
2017-08-05T16:44:05.011Z,97.80
2017-08-05T16:46:33.309Z,97.60
2017-08-05T16:49:01.617Z,98.30
2017-08-05T16:51:29.883Z,98.50
2017-08-05T16:53:58.148Z,97.90
2017-08-05T16:56:26.460Z,97.30
2017-08-05T16:58:54.751Z,98.20
2017-08-05T17:01:23.025Z,98.20
2017-08-05T17:03:51.333Z,98.20
2017-08-05T17:06:19.607Z,98.60
2017-08-05T17:08:47.881Z,98.90
2017-08-05T17:11:16.226Z,99.30
2017-08-05T17:13:44.506Z,98.30
2017-08-05T17:16:12.782Z,99.10
2017-08-05T17:18:41.082Z,98.60
2017-08-05T17:21:09.361Z,97.30
2017-08-05T17:23:37.676Z,97.40
2017-08-05T17:26:05.945Z,98.00
2017-08-05T17:28:34.275Z,96.80
2017-08-05T17:31:02.544Z,97.00
2017-08-05T17:33:30.810Z,97.30
2017-08-05T17:35:59.125Z,96.80
2017-08-05T17:38:27.397Z,97.10
2017-08-05T17:40:55.839Z,97.10
2017-08-05T17:43:24.138Z,97.50
2017-08-05T17:45:52.407Z,96.80
2017-08-05T17:48:19.943Z,96.80
2017-08-05T17:50:47.447Z,97.00
2017-08-05T17:53:15.718Z,97.50
2017-08-05T17:55:44.037Z,98.30
2017-08-05T17:58:11.550Z,98.20
2017-08-05T18:00:39.855Z,98.00
2017-08-05T18:03:08.172Z,98.30
2017-08-05T18:05:36.446Z,98.00
2017-08-05T18:08:04.779Z,98.50
2017-08-05T18:10:33.052Z,97.50
2017-08-05T18:13:01.319Z,98.30
2017-08-05T18:15:29.631Z,97.90
2017-08-05T18:17:57.906Z,98.10
2017-08-05T18:20:26.200Z,98.70
2017-08-05T18:22:54.471Z,98.70
2017-08-05T18:25:22.771Z,98.50
2017-08-05T18:27:51.085Z,99.20
2017-08-05T18:30:19.390Z,99.80
2017-08-05T18:32:47.665Z,99.60
2017-08-05T18:35:15.968Z,99.60
2017-08-05T18:37:44.299Z,99.80
2017-08-05T18:40:12.616Z,99.80
2017-08-05T18:42:40.886Z,99.90
2017-08-05T18:45:08.404Z,99.90
2017-08-05T18:47:36.708Z,99.90
2017-08-05T18:50:04.980Z,99.90
2017-08-05T18:52:33.290Z,99.90
2017-08-05T18:55:01.562Z,99.70
2017-08-05T18:57:29.870Z,99.90
2017-08-05T18:59:58.136Z,99.30
2017-08-05T19:02:26.412Z,99.90
2017-08-05T19:04:54.718Z,99.60
2017-08-05T19:07:22.984Z,99.90
2017-08-05T19:09:51.299Z,99.90
2017-08-05T19:12:19.572Z,99.90
2017-08-05T19:14:47.879Z,99.90
2017-08-05T19:17:16.150Z,99.90
2017-08-05T19:19:44.492Z,99.90
2017-08-05T19:22:12.768Z,99.90
2017-08-05T19:24:41.083Z,99.90
2017-08-05T19:27:08.598Z,99.90
2017-08-05T19:29:36.884Z,99.90
2017-08-05T19:32:05.197Z,99.90
2017-08-05T19:34:33.480Z,99.90
2017-08-05T19:37:01.755Z,99.90
2017-08-05T19:39:30.089Z,99.90
2017-08-05T19:41:58.360Z,99.90
2017-08-05T19:44:26.636Z,99.90
2017-08-05T19:46:54.179Z,99.90
2017-08-05T19:49:22.449Z,99.90
2017-08-05T19:51:50.748Z,99.90
2017-08-05T19:54:18.298Z,99.90
2017-08-05T19:56:46.611Z,99.90
2017-08-05T19:59:14.944Z,99.90
2017-08-05T20:01:43.213Z,99.90
2017-08-05T20:04:11.491Z,99.90
2017-08-05T20:06:39.810Z,99.90
2017-08-05T20:09:08.080Z,99.90
2017-08-05T20:11:36.391Z,99.90
2017-08-05T20:14:04.667Z,99.90
2017-08-05T20:16:32.989Z,99.90
2017-08-05T20:19:01.268Z,99.90
2017-08-05T20:21:29.547Z,99.90
2017-08-05T20:23:57.884Z,99.90
2017-08-05T20:26:26.174Z,99.90
2017-08-05T20:28:54.511Z,99.90
2017-08-05T20:31:22.826Z,99.90
2017-08-05T20:33:51.109Z,99.90
2017-08-05T20:36:19.416Z,99.90
2017-08-05T20:38:47.690Z,99.90
2017-08-05T20:41:15.985Z,99.90
2017-08-05T20:43:44.258Z,99.90
2017-08-05T20:46:12.579Z,99.90
2017-08-05T20:48:40.852Z,99.90
2017-08-05T20:51:09.130Z,99.90
2017-08-05T20:53:37.457Z,99.90
2017-08-05T20:56:05.790Z,99.90
2017-08-05T20:58:34.069Z,99.90
2017-08-05T21:01:02.382Z,99.90
2017-08-05T21:03:30.666Z,99.90
2017-08-05T21:05:58.966Z,99.90
2017-08-05T21:08:27.275Z,99.90
2017-08-05T21:10:55.555Z,99.90
2017-08-05T21:13:23.885Z,99.90
2017-08-05T21:15:51.405Z,99.90
2017-08-05T21:18:19.672Z,99.90
2017-08-05T21:20:47.999Z,99.90
2017-08-05T21:23:16.277Z,99.90
2017-08-05T21:25:44.550Z,99.90
2017-08-05T21:28:12.864Z,99.80
2017-08-05T21:30:41.211Z,99.60
2017-08-05T21:33:09.462Z,98.80
2017-08-05T21:35:37.772Z,99.60
2017-08-05T21:38:06.029Z,99.40
2017-08-05T21:40:34.279Z,98.10
2017-08-05T21:43:02.583Z,97.10
2017-08-05T21:45:30.843Z,97.20
2017-08-05T21:47:59.106Z,97.10
2017-08-05T21:50:27.420Z,97.20
2017-08-05T21:52:55.684Z,97.30
2017-08-05T21:55:23.949Z,97.50
2017-08-05T21:57:52.243Z,97.50
2017-08-05T22:00:20.514Z,97.70
2017-08-05T22:02:48.803Z,98.10
2017-08-05T22:05:17.076Z,97.90
2017-08-05T22:07:45.372Z,97.10
2017-08-05T22:10:13.632Z,97.60
2017-08-05T22:12:41.912Z,98.00
2017-08-05T22:15:10.212Z,98.20
2017-08-05T22:17:37.706Z,98.20
2017-08-05T22:20:06.006Z,98.00
2017-08-05T22:22:34.316Z,97.60
2017-08-05T22:25:01.820Z,97.60
2017-08-05T22:27:31.063Z,98.50
2017-08-05T22:29:58.606Z,98.60
2017-08-05T22:32:26.876Z,98.30
2017-08-05T22:34:55.182Z,98.00
2017-08-05T22:37:23.448Z,97.90
2017-08-05T22:39:51.730Z,98.20
2017-08-05T22:42:20.047Z,98.20
2017-08-05T22:44:48.307Z,97.70
2017-08-05T22:47:16.575Z,98.30
2017-08-05T22:49:44.885Z,98.20
2017-08-05T22:52:13.160Z,97.90
2017-08-05T22:54:41.432Z,97.40
2017-08-05T22:57:09.731Z,98.10
2017-08-05T22:59:37.987Z,97.70
2017-08-05T23:02:06.284Z,98.10
2017-08-05T23:04:34.563Z,98.00
2017-08-05T23:07:02.861Z,98.00
2017-08-05T23:09:31.176Z,98.10
2017-08-05T23:11:59.449Z,97.90
2017-08-05T23:14:27.740Z,98.50
2017-08-05T23:16:56.004Z,98.90
2017-08-05T23:19:24.320Z,98.90
2017-08-05T23:21:52.624Z,98.50
2017-08-05T23:24:20.891Z,98.30
2017-08-05T23:26:49.214Z,98.70
2017-08-05T23:29:16.712Z,98.70
2017-08-05T23:31:44.984Z,98.70
2017-08-05T23:34:13.281Z,99.00
2017-08-05T23:36:41.551Z,99.50
2017-08-05T23:39:09.849Z,99.30
2017-08-05T23:41:38.103Z,99.70
2017-08-05T23:44:06.416Z,99.80
2017-08-05T23:46:34.669Z,99.10
2017-08-05T23:49:02.937Z,98.90
2017-08-05T23:51:31.236Z,99.10
2017-08-05T23:53:59.551Z,99.30
2017-08-05T23:56:27.809Z,99.10
2017-08-05T23:58:56.082Z,99.30
